sensor_id;sensor_type;location;lat;lon;timestamp;pressure;altitude;pressure_sealevel;temperature;humidity
70370;BME280;57790;51.356;-2.906;2022-11-23T00:02:27;99365.50;;;7.72;86.22
70370;BME280;57790;51.356;-2.906;2022-11-23T00:05:28;99370.25;;;7.54;86.59
70370;BME280;57790;51.356;-2.906;2022-11-23T00:08:30;99358.63;;;7.63;86.77
70370;BME280;57790;51.356;-2.906;2022-11-23T00:11:33;99358.94;;;7.68;86.02
70370;BME280;57790;51.356;-2.906;2022-11-23T00:14:33;99362.31;;;7.77;85.34
70370;BME280;57790;51.356;-2.906;2022-11-23T00:17:34;99370.31;;;7.46;85.92
70370;BME280;57790;51.356;-2.906;2022-11-23T00:20:38;99365.16;;;7.53;85.77
70370;BME280;57790;51.356;-2.906;2022-11-23T00:23:38;99357.44;;;7.66;85.25
70370;BME280;57790;51.356;-2.906;2022-11-23T00:26:39;99349.53;;;7.66;84.06
70370;BME280;57790;51.356;-2.906;2022-11-23T00:29:39;99345.88;;;7.52;84.49
70370;BME280;57790;51.356;-2.906;2022-11-23T00:32:40;99335.25;;;7.60;84.25
70370;BME280;57790;51.356;-2.906;2022-11-23T00:35:40;99333.94;;;7.41;84.08
70370;BME280;57790;51.356;-2.906;2022-11-23T00:38:41;99325.84;;;7.43;84.28
70370;BME280;57790;51.356;-2.906;2022-11-23T00:41:42;99317.34;;;7.56;83.98
70370;BME280;57790;51.356;-2.906;2022-11-23T00:44:42;99317.91;;;7.28;83.95
70370;BME280;57790;51.356;-2.906;2022-11-23T00:47:42;99316.19;;;7.35;83.71
70370;BME280;57790;51.356;-2.906;2022-11-23T00:50:43;99311.00;;;7.27;83.77
70370;BME280;57790;51.356;-2.906;2022-11-23T00:53:43;99305.53;;;7.66;83.48
70370;BME280;57790;51.356;-2.906;2022-11-23T00:56:47;99304.84;;;7.50;83.48
70370;BME280;57790;51.356;-2.906;2022-11-23T00:59:50;99309.03;;;7.44;83.94
70370;BME280;57790;51.356;-2.906;2022-11-23T01:02:50;99286.69;;;7.55;83.93
70370;BME280;57790;51.356;-2.906;2022-11-23T01:05:51;99285.75;;;7.47;83.94
70370;BME280;57790;51.356;-2.906;2022-11-23T01:08:53;99266.66;;;7.45;83.98
70370;BME280;57790;51.356;-2.906;2022-11-23T01:11:54;99264.25;;;7.59;83.35
70370;BME280;57790;51.356;-2.906;2022-11-23T01:14:55;99253.88;;;7.57;83.49
70370;BME280;57790;51.356;-2.906;2022-11-23T01:17:55;99244.72;;;7.68;82.76
70370;BME280;57790;51.356;-2.906;2022-11-23T01:20:56;99233.03;;;7.47;82.93
70370;BME280;57790;51.356;-2.906;2022-11-23T01:23:56;99228.88;;;7.53;82.40
70370;BME280;57790;51.356;-2.906;2022-11-23T01:26:57;99217.41;;;7.61;81.78
70370;BME280;57790;51.356;-2.906;2022-11-23T01:29:57;99212.75;;;7.48;81.55
70370;BME280;57790;51.356;-2.906;2022-11-23T01:32:58;99197.66;;;7.42;81.93
70370;BME280;57790;51.356;-2.906;2022-11-23T01:35:58;99181.50;;;7.60;80.89
70370;BME280;57790;51.356;-2.906;2022-11-23T01:38:59;99184.94;;;7.75;80.24
70370;BME280;57790;51.356;-2.906;2022-11-23T01:42:00;99185.06;;;7.67;80.47
70370;BME280;57790;51.356;-2.906;2022-11-23T01:49:00;99184.31;;;7.73;80.46
70370;BME280;57790;51.356;-2.906;2022-11-23T01:52:13;99160.56;;;7.73;80.11
70370;BME280;57790;51.356;-2.906;2022-11-23T01:55:14;99171.50;;;7.70;80.57
70370;BME280;57790;51.356;-2.906;2022-11-23T01:58:18;99144.00;;;7.79;80.37
70370;BME280;57790;51.356;-2.906;2022-11-23T02:01:19;99137.91;;;7.79;80.50
70370;BME280;57790;51.356;-2.906;2022-11-23T02:04:23;99125.19;;;7.82;80.51
70370;BME280;57790;51.356;-2.906;2022-11-23T02:07:25;99109.16;;;7.98;79.97
70370;BME280;57790;51.356;-2.906;2022-11-23T02:10:25;99099.94;;;8.52;79.19
70370;BME280;57790;51.356;-2.906;2022-11-23T02:13:27;99078.69;;;8.39;78.55
70370;BME280;57790;51.356;-2.906;2022-11-23T02:16:28;99069.84;;;8.46;78.01
70370;BME280;57790;51.356;-2.906;2022-11-23T02:26:06;99047.63;;;8.62;77.59
70370;BME280;57790;51.356;-2.906;2022-11-23T02:29:22;99030.97;;;8.61;77.65
70370;BME280;57790;51.356;-2.906;2022-11-23T02:32:23;99020.41;;;8.96;76.60
70370;BME280;57790;51.356;-2.906;2022-11-23T02:35:24;99007.50;;;9.14;76.04
70370;BME280;57790;51.356;-2.906;2022-11-23T02:38:30;98993.13;;;9.30;75.07
70370;BME280;57790;51.356;-2.906;2022-11-23T02:41:38;98987.66;;;9.32;74.66
70370;BME280;57790;51.356;-2.906;2022-11-23T02:44:58;98976.25;;;9.38;74.47
70370;BME280;57790;51.356;-2.906;2022-11-23T02:48:01;98952.63;;;9.23;74.99
70370;BME280;57790;51.356;-2.906;2022-11-23T02:51:02;98948.19;;;9.30;75.11
70370;BME280;57790;51.356;-2.906;2022-11-23T02:54:02;98937.00;;;9.28;74.98
70370;BME280;57790;51.356;-2.906;2022-11-23T02:57:04;98958.34;;;9.27;75.43
70370;BME280;57790;51.356;-2.906;2022-11-23T03:00:05;98950.41;;;9.27;75.25
70370;BME280;57790;51.356;-2.906;2022-11-23T03:03:06;98953.63;;;9.15;75.78
70370;BME280;57790;51.356;-2.906;2022-11-23T03:06:06;98942.09;;;9.30;76.45
70370;BME280;57790;51.356;-2.906;2022-11-23T03:09:07;98923.13;;;9.13;76.79
70370;BME280;57790;51.356;-2.906;2022-11-23T03:12:07;98913.91;;;9.70;78.27
70370;BME280;57790;51.356;-2.906;2022-11-23T03:15:08;98917.06;;;9.39;77.64
70370;BME280;57790;51.356;-2.906;2022-11-23T03:18:09;98908.72;;;9.35;77.74
70370;BME280;57790;51.356;-2.906;2022-11-23T03:21:09;98904.69;;;9.46;77.83
70370;BME280;57790;51.356;-2.906;2022-11-23T03:24:09;98883.53;;;9.52;77.82
70370;BME280;57790;51.356;-2.906;2022-11-23T03:27:10;98873.19;;;9.58;78.28
70370;BME280;57790;51.356;-2.906;2022-11-23T03:30:10;98871.53;;;9.50;78.68
70370;BME280;57790;51.356;-2.906;2022-11-23T03:33:11;98866.84;;;9.52;79.12
70370;BME280;57790;51.356;-2.906;2022-11-23T03:36:11;98862.16;;;9.34;80.02
70370;BME280;57790;51.356;-2.906;2022-11-23T03:39:11;98856.22;;;9.25;81.76
70370;BME280;57790;51.356;-2.906;2022-11-23T03:42:12;98847.13;;;9.48;81.86
70370;BME280;57790;51.356;-2.906;2022-11-23T03:45:12;98840.34;;;9.25;83.00
70370;BME280;57790;51.356;-2.906;2022-11-23T03:48:13;98848.31;;;9.32;83.03
70370;BME280;57790;51.356;-2.906;2022-11-23T03:51:13;98827.19;;;9.78;83.00
70370;BME280;57790;51.356;-2.906;2022-11-23T03:54:13;98828.38;;;9.82;82.82
70370;BME280;57790;51.356;-2.906;2022-11-23T03:57:14;98823.94;;;9.76;83.50
70370;BME280;57790;51.356;-2.906;2022-11-23T04:00:14;98820.44;;;9.96;83.87
70370;BME280;57790;51.356;-2.906;2022-11-23T04:03:15;98806.38;;;9.95;83.77
70370;BME280;57790;51.356;-2.906;2022-11-23T04:06:15;98804.75;;;10.01;84.41
70370;BME280;57790;51.356;-2.906;2022-11-23T04:09:16;98797.63;;;9.95;84.71
70370;BME280;57790;51.356;-2.906;2022-11-23T04:12:16;98784.38;;;10.08;84.90
70370;BME280;57790;51.356;-2.906;2022-11-23T04:15:17;98772.78;;;9.96;85.55
70370;BME280;57790;51.356;-2.906;2022-11-23T04:18:18;98764.47;;;9.92;85.85
70370;BME280;57790;51.356;-2.906;2022-11-23T04:21:18;98751.19;;;10.05;86.13
70370;BME280;57790;51.356;-2.906;2022-11-23T04:24:18;98753.03;;;10.05;85.83
70370;BME280;57790;51.356;-2.906;2022-11-23T04:27:19;98739.81;;;9.92;86.27
70370;BME280;57790;51.356;-2.906;2022-11-23T04:30:19;98732.50;;;9.94;86.84
70370;BME280;57790;51.356;-2.906;2022-11-23T04:33:19;98723.97;;;9.85;87.55
70370;BME280;57790;51.356;-2.906;2022-11-23T04:36:20;98728.03;;;9.88;88.02
70370;BME280;57790;51.356;-2.906;2022-11-23T04:39:20;98705.84;;;9.82;88.66
70370;BME280;57790;51.356;-2.906;2022-11-23T04:42:21;98698.75;;;9.76;89.33
70370;BME280;57790;51.356;-2.906;2022-11-23T04:45:21;98692.22;;;9.85;90.29
70370;BME280;57790;51.356;-2.906;2022-11-23T04:48:22;98692.03;;;9.73;90.68
70370;BME280;57790;51.356;-2.906;2022-11-23T04:51:22;98702.41;;;9.75;91.52
70370;BME280;57790;51.356;-2.906;2022-11-23T04:54:23;98700.19;;;9.65;92.01
70370;BME280;57790;51.356;-2.906;2022-11-23T04:57:23;98693.47;;;9.76;92.88
70370;BME280;57790;51.356;-2.906;2022-11-23T05:00:23;98686.13;;;9.84;93.40
70370;BME280;57790;51.356;-2.906;2022-11-23T05:03:24;98676.53;;;9.90;93.65
70370;BME280;57790;51.356;-2.906;2022-11-23T05:06:25;98674.47;;;9.99;93.88
70370;BME280;57790;51.356;-2.906;2022-11-23T05:09:25;98666.78;;;9.84;94.54
70370;BME280;57790;51.356;-2.906;2022-11-23T05:12:25;98666.16;;;9.89;94.46
70370;BME280;57790;51.356;-2.906;2022-11-23T05:15:26;98651.13;;;10.21;94.70
70370;BME280;57790;51.356;-2.906;2022-11-23T05:18:26;98634.06;;;10.17;94.92
70370;BME280;57790;51.356;-2.906;2022-11-23T05:21:27;98610.22;;;10.17;95.30
70370;BME280;57790;51.356;-2.906;2022-11-23T05:24:27;98611.75;;;10.37;95.33
70370;BME280;57790;51.356;-2.906;2022-11-23T05:27:27;98603.81;;;10.37;95.22
70370;BME280;57790;51.356;-2.906;2022-11-23T05:30:28;98579.28;;;10.49;95.52
70370;BME280;57790;51.356;-2.906;2022-11-23T05:33:28;98567.34;;;10.64;95.47
70370;BME280;57790;51.356;-2.906;2022-11-23T05:36:28;98548.09;;;10.76;95.00
70370;BME280;57790;51.356;-2.906;2022-11-23T05:39:29;98531.88;;;10.84;95.21
70370;BME280;57790;51.356;-2.906;2022-11-23T05:42:29;98538.81;;;10.85;95.24
70370;BME280;57790;51.356;-2.906;2022-11-23T05:45:30;98549.69;;;11.01;94.80
70370;BME280;57790;51.356;-2.906;2022-11-23T05:48:30;98559.75;;;10.93;94.65
70370;BME280;57790;51.356;-2.906;2022-11-23T05:51:30;98567.56;;;11.06;94.28
70370;BME280;57790;51.356;-2.906;2022-11-23T05:54:31;98556.97;;;11.06;94.56
70370;BME280;57790;51.356;-2.906;2022-11-23T05:57:32;98558.38;;;11.09;94.30
70370;BME280;57790;51.356;-2.906;2022-11-23T06:00:35;98577.59;;;11.04;95.65
70370;BME280;57790;51.356;-2.906;2022-11-23T06:03:36;98575.31;;;11.08;96.50
70370;BME280;57790;51.356;-2.906;2022-11-23T06:06:37;98570.38;;;11.11;96.40
70370;BME280;57790;51.356;-2.906;2022-11-23T06:09:37;98561.09;;;11.20;96.69
70370;BME280;57790;51.356;-2.906;2022-11-23T06:12:38;98568.47;;;11.18;96.25
70370;BME280;57790;51.356;-2.906;2022-11-23T06:15:38;98566.53;;;11.25;95.92
70370;BME280;57790;51.356;-2.906;2022-11-23T06:18:38;98562.63;;;11.28;95.58
70370;BME280;57790;51.356;-2.906;2022-11-23T06:21:39;98562.63;;;11.28;95.78
70370;BME280;57790;51.356;-2.906;2022-11-23T06:24:40;98561.78;;;11.34;95.46
70370;BME280;57790;51.356;-2.906;2022-11-23T06:27:40;98565.75;;;11.43;95.06
70370;BME280;57790;51.356;-2.906;2022-11-23T06:30:41;98562.50;;;11.41;95.03
70370;BME280;57790;51.356;-2.906;2022-11-23T06:33:41;98566.41;;;11.39;95.04
70370;BME280;57790;51.356;-2.906;2022-11-23T06:36:41;98574.09;;;11.47;94.46
70370;BME280;57790;51.356;-2.906;2022-11-23T06:39:42;98593.34;;;12.50;93.31
70370;BME280;57790;51.356;-2.906;2022-11-23T06:42:42;98614.22;;;11.69;90.55
70370;BME280;57790;51.356;-2.906;2022-11-23T06:45:43;98618.19;;;11.23;91.79
70370;BME280;57790;51.356;-2.906;2022-11-23T06:48:44;98620.88;;;11.41;91.04
70370;BME280;57790;51.356;-2.906;2022-11-23T06:51:45;98636.91;;;11.28;90.15
70370;BME280;57790;51.356;-2.906;2022-11-23T06:54:45;98638.91;;;11.32;90.08
70370;BME280;57790;51.356;-2.906;2022-11-23T06:57:46;98647.00;;;11.19;90.35
70370;BME280;57790;51.356;-2.906;2022-11-23T07:00:46;98653.47;;;11.67;90.07
70370;BME280;57790;51.356;-2.906;2022-11-23T07:03:47;98645.16;;;11.20;88.78
70370;BME280;57790;51.356;-2.906;2022-11-23T07:06:47;98646.63;;;11.59;89.06
70370;BME280;57790;51.356;-2.906;2022-11-23T07:09:47;98656.38;;;11.40;87.11
70370;BME280;57790;51.356;-2.906;2022-11-23T07:12:48;98658.91;;;11.10;87.86
70370;BME280;57790;51.356;-2.906;2022-11-23T07:15:48;98666.50;;;11.07;88.19
70370;BME280;57790;51.356;-2.906;2022-11-23T07:18:48;98685.06;;;11.31;86.11
70370;BME280;57790;51.356;-2.906;2022-11-23T07:21:49;98707.69;;;11.34;85.26
70370;BME280;57790;51.356;-2.906;2022-11-23T07:24:49;98738.50;;;11.78;84.77
70370;BME280;57790;51.356;-2.906;2022-11-23T07:27:57;98744.56;;;10.79;84.98
70370;BME280;57790;51.356;-2.906;2022-11-23T07:30:58;98748.94;;;10.98;86.13
70370;BME280;57790;51.356;-2.906;2022-11-23T07:33:58;98762.44;;;10.59;85.93
70370;BME280;57790;51.356;-2.906;2022-11-23T07:36:59;98766.75;;;10.47;86.53
70370;BME280;57790;51.356;-2.906;2022-11-23T07:39:59;98771.25;;;10.84;86.74
70370;BME280;57790;51.356;-2.906;2022-11-23T07:43:01;98776.59;;;11.09;85.72
70370;BME280;57790;51.356;-2.906;2022-11-23T07:46:04;98782.56;;;10.66;85.92
70370;BME280;57790;51.356;-2.906;2022-11-23T07:49:05;98791.03;;;10.82;85.31
70370;BME280;57790;51.356;-2.906;2022-11-23T07:52:05;98796.88;;;10.59;85.61
70370;BME280;57790;51.356;-2.906;2022-11-23T07:55:06;98788.28;;;10.63;84.89
70370;BME280;57790;51.356;-2.906;2022-11-23T07:58:06;98788.44;;;10.75;84.47
70370;BME280;57790;51.356;-2.906;2022-11-23T08:01:07;98794.91;;;12.17;82.39
70370;BME280;57790;51.356;-2.906;2022-11-23T08:04:07;98815.91;;;10.87;84.57
70370;BME280;57790;51.356;-2.906;2022-11-23T08:07:07;98819.06;;;10.71;85.27
70370;BME280;57790;51.356;-2.906;2022-11-23T08:10:08;98822.63;;;10.90;85.34
70370;BME280;57790;51.356;-2.906;2022-11-23T08:13:08;98836.31;;;10.87;85.38
70370;BME280;57790;51.356;-2.906;2022-11-23T08:16:09;98841.47;;;10.68;85.38
70370;BME280;57790;51.356;-2.906;2022-11-23T08:19:10;98853.53;;;11.41;85.64
70370;BME280;57790;51.356;-2.906;2022-11-23T08:22:10;98860.81;;;10.69;84.47
70370;BME280;57790;51.356;-2.906;2022-11-23T08:25:10;98861.28;;;10.53;84.03
70370;BME280;57790;51.356;-2.906;2022-11-23T08:28:11;98850.03;;;10.70;84.83
70370;BME280;57790;51.356;-2.906;2022-11-23T08:31:12;98870.06;;;11.05;85.30
70370;BME280;57790;51.356;-2.906;2022-11-23T08:34:13;98884.28;;;10.72;84.76
70370;BME280;57790;51.356;-2.906;2022-11-23T08:37:14;98888.78;;;10.71;84.70
70370;BME280;57790;51.356;-2.906;2022-11-23T08:40:14;98910.78;;;10.72;85.24
70370;BME280;57790;51.356;-2.906;2022-11-23T08:43:15;98910.75;;;10.79;84.58
70370;BME280;57790;51.356;-2.906;2022-11-23T08:46:16;98915.03;;;10.80;83.44
70370;BME280;57790;51.356;-2.906;2022-11-23T08:49:16;98915.03;;;11.62;81.29
70370;BME280;57790;51.356;-2.906;2022-11-23T08:52:16;98927.56;;;11.49;80.84
70370;BME280;57790;51.356;-2.906;2022-11-23T08:55:17;98929.09;;;11.31;79.25
70370;BME280;57790;51.356;-2.906;2022-11-23T08:58:17;98935.59;;;11.36;80.35
70370;BME280;57790;51.356;-2.906;2022-11-23T09:01:18;98953.97;;;11.69;79.07
70370;BME280;57790;51.356;-2.906;2022-11-23T09:04:18;98964.16;;;10.82;77.94
70370;BME280;57790;51.356;-2.906;2022-11-23T09:07:19;98967.28;;;10.59;78.66
70370;BME280;57790;51.356;-2.906;2022-11-23T09:10:19;98982.97;;;10.41;78.91
70370;BME280;57790;51.356;-2.906;2022-11-23T09:13:20;98979.09;;;10.50;78.83
70370;BME280;57790;51.356;-2.906;2022-11-23T09:16:20;98990.31;;;10.46;79.49
70370;BME280;57790;51.356;-2.906;2022-11-23T09:19:21;98972.03;;;11.09;77.25
70370;BME280;57790;51.356;-2.906;2022-11-23T09:22:21;98979.50;;;11.25;77.86
70370;BME280;57790;51.356;-2.906;2022-11-23T09:25:22;98985.69;;;11.12;76.36
70370;BME280;57790;51.356;-2.906;2022-11-23T09:28:22;98982.09;;;11.45;77.12
70370;BME280;57790;51.356;-2.906;2022-11-23T09:31:24;98990.53;;;11.73;76.46
70370;BME280;57790;51.356;-2.906;2022-11-23T09:34:27;98980.63;;;11.94;72.36
70370;BME280;57790;51.356;-2.906;2022-11-23T09:37:28;98996.28;;;11.63;73.48
70370;BME280;57790;51.356;-2.906;2022-11-23T09:40:32;99007.22;;;12.18;73.40
70370;BME280;57790;51.356;-2.906;2022-11-23T09:43:35;99013.78;;;12.84;71.50
70370;BME280;57790;51.356;-2.906;2022-11-23T09:46:41;99013.75;;;12.47;74.01
70370;BME280;57790;51.356;-2.906;2022-11-23T09:53:11;99036.13;;;13.01;72.67
70370;BME280;57790;51.356;-2.906;2022-11-23T09:56:19;99037.84;;;13.14;71.61
70370;BME280;57790;51.356;-2.906;2022-11-23T09:59:51;99044.63;;;13.83;70.51
70370;BME280;57790;51.356;-2.906;2022-11-23T10:02:54;99045.66;;;14.12;69.43
70370;BME280;57790;51.356;-2.906;2022-11-23T10:06:06;99046.94;;;13.06;70.88
70370;BME280;57790;51.356;-2.906;2022-11-23T10:16:24;99073.06;;;11.65;74.37
70370;BME280;57790;51.356;-2.906;2022-11-23T10:19:44;99081.81;;;11.72;73.92
70370;BME280;57790;51.356;-2.906;2022-11-23T10:22:59;99094.16;;;12.05;74.10
70370;BME280;57790;51.356;-2.906;2022-11-23T10:26:00;99093.66;;;12.77;73.61
70370;BME280;57790;51.356;-2.906;2022-11-23T10:29:30;99095.72;;;13.62;70.32
70370;BME280;57790;51.356;-2.906;2022-11-23T10:32:36;99101.00;;;13.25;68.29
70370;BME280;57790;51.356;-2.906;2022-11-23T10:35:41;99098.53;;;14.27;68.56
70370;BME280;57790;51.356;-2.906;2022-11-23T10:38:41;99100.66;;;14.37;65.72
70370;BME280;57790;51.356;-2.906;2022-11-23T10:41:43;99093.47;;;15.02;64.03
70370;BME280;57790;51.356;-2.906;2022-11-23T10:44:44;99100.59;;;15.08;61.31
70370;BME280;57790;51.356;-2.906;2022-11-23T10:47:55;99093.94;;;14.99;62.38
70370;BME280;57790;51.356;-2.906;2022-11-23T10:51:15;99073.63;;;15.33;63.44
70370;BME280;57790;51.356;-2.906;2022-11-23T10:54:28;99087.25;;;15.08;60.34
70370;BME280;57790;51.356;-2.906;2022-11-23T11:00:32;99102.06;;;15.63;56.59
70370;BME280;57790;51.356;-2.906;2022-11-23T11:03:33;99111.13;;;15.50;59.43
70370;BME280;57790;51.356;-2.906;2022-11-23T11:06:34;99112.31;;;15.19;60.04
70370;BME280;57790;51.356;-2.906;2022-11-23T11:09:35;99094.53;;;15.88;58.52
70370;BME280;57790;51.356;-2.906;2022-11-23T11:12:50;99096.69;;;16.03;58.10
70370;BME280;57790;51.356;-2.906;2022-11-23T11:16:02;99107.38;;;14.69;59.26
70370;BME280;57790;51.356;-2.906;2022-11-23T11:19:33;99105.66;;;14.98;59.82
70370;BME280;57790;51.356;-2.906;2022-11-23T11:22:35;99116.03;;;15.06;60.53
70370;BME280;57790;51.356;-2.906;2022-11-23T11:25:37;99112.19;;;16.29;58.52
70370;BME280;57790;51.356;-2.906;2022-11-23T11:28:42;99117.88;;;15.64;57.67
70370;BME280;57790;51.356;-2.906;2022-11-23T11:35:26;99115.97;;;15.53;57.59
70370;BME280;57790;51.356;-2.906;2022-11-23T11:38:33;99131.13;;;14.47;61.84
70370;BME280;57790;51.356;-2.906;2022-11-23T11:41:36;99124.59;;;15.08;60.57
70370;BME280;57790;51.356;-2.906;2022-11-23T11:44:39;99109.81;;;16.04;59.08
70370;BME280;57790;51.356;-2.906;2022-11-23T11:47:46;99117.66;;;15.94;59.07
70370;BME280;57790;51.356;-2.906;2022-11-23T11:50:56;99123.44;;;15.16;57.84
70370;BME280;57790;51.356;-2.906;2022-11-23T11:54:28;99118.56;;;16.00;57.28
70370;BME280;57790;51.356;-2.906;2022-11-23T11:57:35;99125.06;;;15.05;57.71
70370;BME280;57790;51.356;-2.906;2022-11-23T12:00:39;99130.25;;;15.47;57.89
70370;BME280;57790;51.356;-2.906;2022-11-23T12:03:52;99117.97;;;16.83;55.90
70370;BME280;57790;51.356;-2.906;2022-11-23T12:07:04;99130.25;;;16.22;57.01
70370;BME280;57790;51.356;-2.906;2022-11-23T12:10:26;99138.06;;;16.69;57.28
70370;BME280;57790;51.356;-2.906;2022-11-23T12:13:35;99130.75;;;16.64;55.95
70370;BME280;57790;51.356;-2.906;2022-11-23T12:20:20;99133.84;;;16.16;59.08
70370;BME280;57790;51.356;-2.906;2022-11-23T12:27:21;99159.09;;;14.68;59.82
70370;BME280;57790;51.356;-2.906;2022-11-23T12:30:41;99182.31;;;14.19;58.84
70370;BME280;57790;51.356;-2.906;2022-11-23T12:40:35;99190.53;;;13.63;62.04
70370;BME280;57790;51.356;-2.906;2022-11-23T12:44:20;99195.50;;;13.96;63.02
70370;BME280;57790;51.356;-2.906;2022-11-23T12:54:47;99207.41;;;13.75;62.50
70370;BME280;57790;51.356;-2.906;2022-11-23T13:01:01;99208.50;;;13.49;62.25
70370;BME280;57790;51.356;-2.906;2022-11-23T13:14:19;99220.19;;;12.92;62.86
70370;BME280;57790;51.356;-2.906;2022-11-23T13:24:29;99223.59;;;14.28;62.05
70370;BME280;57790;51.356;-2.906;2022-11-23T13:34:51;99233.69;;;13.90;63.20
70370;BME280;57790;51.356;-2.906;2022-11-23T13:40:55;99246.22;;;13.46;63.17
70370;BME280;57790;51.356;-2.906;2022-11-23T13:43:55;99251.75;;;14.06;63.38
70370;BME280;57790;51.356;-2.906;2022-11-23T13:50:17;99257.28;;;13.18;63.14
70370;BME280;57790;51.356;-2.906;2022-11-23T13:53:33;99261.13;;;13.16;64.33
70370;BME280;57790;51.356;-2.906;2022-11-23T13:56:41;99264.13;;;14.37;63.77
70370;BME280;57790;51.356;-2.906;2022-11-23T13:59:43;99268.50;;;13.45;63.29
70370;BME280;57790;51.356;-2.906;2022-11-23T14:02:43;99284.78;;;12.99;63.51
70370;BME280;57790;51.356;-2.906;2022-11-23T14:08:50;99298.94;;;12.93;64.60
70370;BME280;57790;51.356;-2.906;2022-11-23T14:15:12;99290.28;;;13.04;64.78
70370;BME280;57790;51.356;-2.906;2022-11-23T14:32:23;99305.28;;;12.47;65.48
70370;BME280;57790;51.356;-2.906;2022-11-23T14:35:38;99299.44;;;12.18;66.49
70370;BME280;57790;51.356;-2.906;2022-11-23T14:38:55;99291.69;;;12.10;67.34
70370;BME280;57790;51.356;-2.906;2022-11-23T14:42:02;99294.78;;;11.94;67.31
70370;BME280;57790;51.356;-2.906;2022-11-23T14:45:12;99301.97;;;11.87;67.20
70370;BME280;57790;51.356;-2.906;2022-11-23T14:48:27;99296.84;;;11.79;68.23
70370;BME280;57790;51.356;-2.906;2022-11-23T14:51:28;99300.09;;;11.74;68.76
70370;BME280;57790;51.356;-2.906;2022-11-23T14:54:29;99300.31;;;11.59;69.50
70370;BME280;57790;51.356;-2.906;2022-11-23T14:57:41;99299.06;;;11.42;69.48
70370;BME280;57790;51.356;-2.906;2022-11-23T15:00:43;99319.28;;;11.56;69.98
70370;BME280;57790;51.356;-2.906;2022-11-23T15:03:54;99324.44;;;11.91;70.44
70370;BME280;57790;51.356;-2.906;2022-11-23T15:07:22;99325.44;;;11.97;69.43
70370;BME280;57790;51.356;-2.906;2022-11-23T15:10:36;99326.03;;;11.59;70.42
70370;BME280;57790;51.356;-2.906;2022-11-23T15:13:46;99336.84;;;11.71;70.09
70370;BME280;57790;51.356;-2.906;2022-11-23T15:16:47;99330.34;;;11.93;70.14
70370;BME280;57790;51.356;-2.906;2022-11-23T15:19:58;99328.56;;;12.51;69.86
70370;BME280;57790;51.356;-2.906;2022-11-23T15:23:00;99319.91;;;12.05;69.36
70370;BME280;57790;51.356;-2.906;2022-11-23T15:26:05;99330.81;;;12.61;69.13
70370;BME280;57790;51.356;-2.906;2022-11-23T15:29:35;99329.09;;;11.96;67.84
70370;BME280;57790;51.356;-2.906;2022-11-23T15:32:36;99338.72;;;11.97;68.63
70370;BME280;57790;51.356;-2.906;2022-11-23T15:35:39;99352.78;;;11.71;67.95
70370;BME280;57790;51.356;-2.906;2022-11-23T15:38:40;99361.75;;;11.50;68.44
70370;BME280;57790;51.356;-2.906;2022-11-23T15:41:40;99359.72;;;12.31;67.64
70370;BME280;57790;51.356;-2.906;2022-11-23T15:44:41;99373.84;;;11.72;69.13
70370;BME280;57790;51.356;-2.906;2022-11-23T15:47:41;99373.03;;;11.72;68.88
70370;BME280;57790;51.356;-2.906;2022-11-23T15:50:47;99377.72;;;11.96;68.83
70370;BME280;57790;51.356;-2.906;2022-11-23T15:53:50;99391.78;;;11.63;69.36
70370;BME280;57790;51.356;-2.906;2022-11-23T15:56:53;99380.56;;;11.75;70.44
70370;BME280;57790;51.356;-2.906;2022-11-23T15:59:59;99386.84;;;11.41;70.92
70370;BME280;57790;51.356;-2.906;2022-11-23T16:03:24;99390.56;;;11.66;70.58
70370;BME280;57790;51.356;-2.906;2022-11-23T16:06:38;99392.41;;;11.66;71.34
70370;BME280;57790;51.356;-2.906;2022-11-23T16:09:43;99400.72;;;11.29;70.50
70370;BME280;57790;51.356;-2.906;2022-11-23T16:12:52;99402.56;;;11.29;71.11
70370;BME280;57790;51.356;-2.906;2022-11-23T16:15:59;99412.34;;;11.28;71.61
70370;BME280;57790;51.356;-2.906;2022-11-23T16:19:01;99412.47;;;11.14;72.06
70370;BME280;57790;51.356;-2.906;2022-11-23T16:22:05;99415.41;;;11.32;71.92
70370;BME280;57790;51.356;-2.906;2022-11-23T16:25:28;99427.84;;;11.31;71.89
70370;BME280;57790;51.356;-2.906;2022-11-23T16:28:33;99430.50;;;11.31;73.10
70370;BME280;57790;51.356;-2.906;2022-11-23T16:31:40;99433.41;;;10.95;73.79
70370;BME280;57790;51.356;-2.906;2022-11-23T16:34:42;99436.78;;;11.24;73.47
70370;BME280;57790;51.356;-2.906;2022-11-23T16:37:44;99436.03;;;11.37;73.70
70370;BME280;57790;51.356;-2.906;2022-11-23T16:40:45;99434.78;;;10.85;74.04
70370;BME280;57790;51.356;-2.906;2022-11-23T16:43:55;99440.09;;;11.32;73.33
70370;BME280;57790;51.356;-2.906;2022-11-23T16:47:18;99433.84;;;11.67;72.05
70370;BME280;57790;51.356;-2.906;2022-11-23T16:50:20;99447.91;;;11.47;71.32
70370;BME280;57790;51.356;-2.906;2022-11-23T16:53:20;99457.06;;;11.38;71.38
70370;BME280;57790;51.356;-2.906;2022-11-23T16:56:23;99450.34;;;11.49;71.52
70370;BME280;57790;51.356;-2.906;2022-11-23T16:59:24;99468.72;;;11.44;70.84
70370;BME280;57790;51.356;-2.906;2022-11-23T17:02:25;99469.44;;;11.18;71.73
70370;BME280;57790;51.356;-2.906;2022-11-23T17:05:25;99475.66;;;11.45;71.16
70370;BME280;57790;51.356;-2.906;2022-11-23T17:08:25;99483.72;;;11.78;70.40
70370;BME280;57790;51.356;-2.906;2022-11-23T17:11:26;99477.00;;;11.27;71.90
70370;BME280;57790;51.356;-2.906;2022-11-23T17:14:34;99474.53;;;11.19;72.54
70370;BME280;57790;51.356;-2.906;2022-11-23T17:17:35;99496.03;;;11.31;73.68
70370;BME280;57790;51.356;-2.906;2022-11-23T17:20:36;99482.56;;;11.39;73.58
70370;BME280;57790;51.356;-2.906;2022-11-23T17:23:37;99478.97;;;11.12;72.64
70370;BME280;57790;51.356;-2.906;2022-11-23T17:26:45;99475.97;;;11.22;72.34
70370;BME280;57790;51.356;-2.906;2022-11-23T17:29:46;99478.75;;;11.07;72.07
70370;BME280;57790;51.356;-2.906;2022-11-23T17:32:50;99477.81;;;11.28;71.57
70370;BME280;57790;51.356;-2.906;2022-11-23T17:35:51;99492.03;;;11.14;71.20
70370;BME280;57790;51.356;-2.906;2022-11-23T17:38:55;99490.81;;;11.64;71.88
70370;BME280;57790;51.356;-2.906;2022-11-23T17:41:55;99481.34;;;11.35;70.88
70370;BME280;57790;51.356;-2.906;2022-11-23T17:44:56;99491.44;;;11.59;71.69
70370;BME280;57790;51.356;-2.906;2022-11-23T17:47:56;99496.69;;;11.53;71.16